Time;durP1;ratioP1;P1;durP2;ratioP2;P2;SDS_P1;SDS_P2;PMS_P1;PMS_P2;Temp;Humidity;BMP_temperature;BMP_pressure;BME280_temperature;BME280_humidity;BME280_pressure;Samples;Min_cycle;Max_cycle;Signal;HPM_P1;HPM_P2
2022/05/10 00:04:29;;;;;;;3.03;1.83;;;;;;;;;;10362903;28;20079;-56
2022/05/10 00:09:29;;;;;;;3.83;2.40;;;;;;;;;;10362137;28;20067;-56
2022/05/10 00:14:28;;;;;;;5.07;2.78;;;;;;;;;;10362549;28;20063;-58
2022/05/10 00:19:30;;;;;;;3.45;1.88;;;;;;;;;;10362006;28;20052;-57
2022/05/10 00:24:30;;;;;;;3.78;2.10;;;;;;;;;;10361950;28;20086;-58
2022/05/10 00:29:28;;;;;;;6.68;2.10;;;;;;;;;;10361284;28;20106;-59
2022/05/10 00:34:28;;;;;;;4.30;2.03;;;;;;;;;;10360563;28;20044;-58
2022/05/10 00:39:26;;;;;;;2.75;1.92;;;;;;;;;;10360761;28;20059;-57
2022/05/10 00:44:28;;;;;;;4.85;2.40;;;;;;;;;;10360684;28;20081;-57
2022/05/10 00:49:29;;;;;;;2.30;1.70;;;;;;;;;;10360719;28;20040;-56
2022/05/10 00:54:31;;;;;;;2.67;1.67;;;;;;;;;;10360604;28;20044;-54
2022/05/10 00:59:35;;;;;;;2.67;1.90;;;;;;;;;;10360353;28;20092;-59
2022/05/10 01:04:36;;;;;;;3.08;2.13;;;;;;;;;;10360090;28;20068;-55
2022/05/10 01:09:41;;;;;;;5.88;2.00;;;;;;;;;;10359567;28;20052;-57
2022/05/10 01:14:45;;;;;;;3.67;1.88;;;;;;;;;;10357309;28;20524;-58
2022/05/10 01:19:44;;;;;;;9.13;2.42;;;;;;;;;;10357768;28;20084;-58
2022/05/10 01:24:49;;;;;;;3.17;1.92;;;;;;;;;;10358752;28;20066;-59
2022/05/10 01:29:51;;;;;;;2.75;2.00;;;;;;;;;;10352257;28;20185;-58
2022/05/10 01:34:50;;;;;;;7.03;2.05;;;;;;;;;;10353199;28;20064;-58
2022/05/10 01:39:51;;;;;;;2.60;2.10;;;;;;;;;;10350355;28;20072;-59
2022/05/10 01:44:53;;;;;;;4.03;2.20;;;;;;;;;;10357374;28;20063;-58
2022/05/10 01:49:54;;;;;;;5.35;1.95;;;;;;;;;;10354635;28;20078;-58
2022/05/10 01:54:59;;;;;;;7.03;2.45;;;;;;;;;;10357616;28;20079;-56
2022/05/10 02:00:03;;;;;;;2.75;2.20;;;;;;;;;;10355098;28;20082;-56
2022/05/10 02:05:12;;;;;;;5.25;2.78;;;;;;;;;;10356909;28;20040;-57
2022/05/10 02:10:12;;;;;;;8.45;3.50;;;;;;;;;;10351612;28;20079;-57
2022/05/10 02:15:14;;;;;;;7.38;3.45;;;;;;;;;;10350473;28;20072;-57
2022/05/10 02:20:14;;;;;;;7.88;3.80;;;;;;;;;;10350877;28;20464;-57
2022/05/10 02:25:14;;;;;;;7.18;4.80;;;;;;;;;;10355389;28;20082;-57
2022/05/10 02:30:15;;;;;;;10.30;4.68;;;;;;;;;;10352294;28;20075;-57
2022/05/10 02:35:15;;;;;;;5.97;3.88;;;;;;;;;;10356236;28;20497;-58
2022/05/10 02:40:14;;;;;;;7.40;3.75;;;;;;;;;;10354467;28;20075;-57
2022/05/10 02:45:18;;;;;;;10.85;3.88;;;;;;;;;;10355229;28;20600;-57
2022/05/10 02:50:23;;;;;;;7.10;3.50;;;;;;;;;;10355506;28;20492;-57
2022/05/10 02:55:24;;;;;;;7.22;3.20;;;;;;;;;;10355091;28;20509;-55
2022/05/10 03:00:25;;;;;;;4.63;2.67;;;;;;;;;;10355284;28;20079;-58
2022/05/10 03:05:24;;;;;;;4.32;3.03;;;;;;;;;;10355999;28;20083;-55
2022/05/10 03:10:22;;;;;;;5.95;2.67;;;;;;;;;;10356034;28;20417;-56
2022/05/10 03:15:21;;;;;;;12.20;5.40;;;;;;;;;;10355477;28;20080;-57
2022/05/10 03:20:20;;;;;;;7.70;3.88;;;;;;;;;;10355034;28;20059;-59
2022/05/10 03:25:20;;;;;;;5.60;2.72;;;;;;;;;;10355114;28;20064;-58
2022/05/10 03:30:18;;;;;;;5.82;2.78;;;;;;;;;;10355051;28;20653;-55
2022/05/10 03:35:17;;;;;;;6.57;3.38;;;;;;;;;;10354588;28;20543;-56
2022/05/10 03:40:16;;;;;;;7.45;3.28;;;;;;;;;;10353866;28;20067;-56
2022/05/10 03:45:15;;;;;;;3.47;2.78;;;;;;;;;;10354962;28;20078;-59
2022/05/10 03:50:15;;;;;;;5.97;2.97;;;;;;;;;;10355207;28;20036;-58
2022/05/10 03:55:14;;;;;;;3.97;2.90;;;;;;;;;;10355393;28;20477;-57
2022/05/10 04:00:17;;;;;;;18.17;10.55;;;;;;;;;;10355050;28;20068;-57
2022/05/10 04:05:16;;;;;;;6.13;4.50;;;;;;;;;;10355137;28;20094;-58
2022/05/10 04:10:15;;;;;;;6.57;3.40;;;;;;;;;;10354632;28;20075;-57
2022/05/10 04:15:15;;;;;;;37.00;25.20;;;;;;;;;;10361390;28;20064;-56
2022/05/10 04:20:14;;;;;;;90.53;68.85;;;;;;;;;;10360885;28;20150;-58
2022/05/10 04:25:13;;;;;;;32.65;15.35;;;;;;;;;;10360350;28;20082;-57
2022/05/10 04:30:12;;;;;;;27.23;10.98;;;;;;;;;;10360484;28;20072;-56
2022/05/10 04:35:12;;;;;;;23.30;8.52;;;;;;;;;;10356682;28;20076;-57
2022/05/10 04:45:27;;;;;;;14.88;6.32;;;;;;;;;;10357673;28;20537;-57
2022/05/10 04:50:27;;;;;;;13.60;6.00;;;;;;;;;;10358633;28;20072;-58
2022/05/10 04:55:25;;;;;;;17.55;7.15;;;;;;;;;;10358696;28;20121;-57
2022/05/10 05:00:24;;;;;;;27.02;9.35;;;;;;;;;;10355358;28;20079;-58
2022/05/10 05:05:22;;;;;;;28.02;11.35;;;;;;;;;;10354354;28;20067;-58
2022/05/10 05:10:22;;;;;;;31.55;10.50;;;;;;;;;;10355005;28;20102;-59
2022/05/10 05:15:21;;;;;;;22.80;8.13;;;;;;;;;;10356621;28;20075;-58
2022/05/10 05:20:19;;;;;;;23.25;7.07;;;;;;;;;;10356571;28;20060;-58
2022/05/10 05:25:19;;;;;;;19.13;6.55;;;;;;;;;;10355818;28;20060;-58
2022/05/10 05:30:19;;;;;;;23.00;6.25;;;;;;;;;;10355431;28;20068;-58
2022/05/10 05:35:17;;;;;;;21.50;6.75;;;;;;;;;;10357069;28;20075;-58
2022/05/10 05:40:16;;;;;;;22.13;6.95;;;;;;;;;;10354314;28;20074;-58
2022/05/10 05:45:18;;;;;;;19.45;5.85;;;;;;;;;;10348557;28;20060;-56
2022/05/10 05:50:18;;;;;;;36.30;25.63;;;;;;;;;;10354940;28;20067;-58
2022/05/10 05:55:17;;;;;;;78.95;53.30;;;;;;;;;;10354607;28;20067;-58
2022/05/10 06:00:17;;;;;;;16.10;9.95;;;;;;;;;;10353835;28;20078;-58
2022/05/10 06:05:15;;;;;;;16.88;5.82;;;;;;;;;;10355277;28;20478;-57
2022/05/10 06:10:15;;;;;;;8.18;4.65;;;;;;;;;;10353066;28;20087;-58
2022/05/10 06:15:16;;;;;;;10.32;3.33;;;;;;;;;;10352087;28;20067;-58
2022/05/10 06:20:15;;;;;;;4.03;3.45;;;;;;;;;;10352271;28;20068;-58
2022/05/10 06:25:17;;;;;;;10.25;3.47;;;;;;;;;;10349774;28;20462;-56
2022/05/10 06:30:16;;;;;;;3.83;3.30;;;;;;;;;;10352241;28;20071;-58
2022/05/10 06:35:15;;;;;;;14.07;3.78;;;;;;;;;;10351036;28;20075;-57
2022/05/10 06:40:19;;;;;;;5.55;3.40;;;;;;;;;;10351784;28;20086;-57
2022/05/10 06:45:18;;;;;;;7.57;4.63;;;;;;;;;;10353468;28;20478;-58
2022/05/10 06:50:18;;;;;;;16.27;4.53;;;;;;;;;;10354586;28;20047;-58
2022/05/10 06:55:16;;;;;;;14.35;7.32;;;;;;;;;;10355503;28;20079;-58
2022/05/10 07:00:17;;;;;;;8.65;5.50;;;;;;;;;;10355622;28;20517;-58
2022/05/10 07:05:16;;;;;;;10.02;5.93;;;;;;;;;;10356816;28;20389;-58
2022/05/10 07:10:16;;;;;;;10.52;9.07;;;;;;;;;;10355167;28;20079;-57
2022/05/10 07:15:16;;;;;;;11.02;6.95;;;;;;;;;;10354348;28;20106;-57
2022/05/10 07:20:20;;;;;;;10.30;6.50;;;;;;;;;;10351446;28;20047;-58
2022/05/10 07:25:19;;;;;;;6.32;4.63;;;;;;;;;;10346648;28;20457;-58
2022/05/10 07:30:20;;;;;;;18.52;15.13;;;;;;;;;;10354730;28;20087;-58
2022/05/10 07:36:23;;;;;;;14.85;10.00;;;;;;;;;;10354606;28;20497;-58
2022/05/10 07:40:39;;;;;;;7.30;5.22;;;;;;;;;;10351481;28;20071;-58
2022/05/10 07:45:45;;;;;;;10.30;4.75;;;;;;;;;;10356507;28;20342;-58
2022/05/10 07:50:44;;;;;;;8.35;5.32;;;;;;;;;;10362203;28;20071;-57
2022/05/10 07:55:44;;;;;;;5.40;4.45;;;;;;;;;;10361769;28;20079;-58
2022/05/10 08:00:44;;;;;;;17.77;14.65;;;;;;;;;;10361406;28;20501;-58
2022/05/10 08:05:42;;;;;;;9.60;4.75;;;;;;;;;;10361852;28;20044;-58
2022/05/10 08:10:41;;;;;;;6.18;5.20;;;;;;;;;;10360987;28;20091;-58
2022/05/10 08:15:40;;;;;;;5.00;4.50;;;;;;;;;;10359517;28;20466;-59
2022/05/10 08:20:40;;;;;;;5.28;4.70;;;;;;;;;;10355087;28;20719;-58
2022/05/10 08:25:38;;;;;;;7.47;4.78;;;;;;;;;;10354878;28;20071;-58
2022/05/10 08:30:36;;;;;;;8.73;7.82;;;;;;;;;;10360608;28;20067;-58
2022/05/10 08:35:34;;;;;;;6.65;4.38;;;;;;;;;;10360665;28;20071;-58
2022/05/10 08:40:36;;;;;;;6.93;4.78;;;;;;;;;;10360283;28;20075;-58
2022/05/10 08:45:40;;;;;;;7.50;6.03;;;;;;;;;;10360296;28;20059;-58
2022/05/10 08:50:39;;;;;;;9.10;5.20;;;;;;;;;;10354107;28;22713;-58
2022/05/10 08:55:42;;;;;;;10.85;7.18;;;;;;;;;;10356142;28;20068;-58
2022/05/10 09:00:42;;;;;;;13.20;6.83;;;;;;;;;;10359712;28;20044;-58
2022/05/10 09:05:42;;;;;;;10.48;5.53;;;;;;;;;;10359645;28;20055;-58
2022/05/10 09:10:44;;;;;;;11.05;5.07;;;;;;;;;;10359429;28;20481;-59
2022/05/10 09:15:47;;;;;;;8.88;5.00;;;;;;;;;;10359003;28;20067;-58
2022/05/10 09:20:52;;;;;;;7.18;4.65;;;;;;;;;;10355630;28;20067;-58
2022/05/10 09:25:55;;;;;;;8.00;4.57;;;;;;;;;;10355520;28;20078;-58
2022/05/10 09:36:10;;;;;;;7.10;5.00;;;;;;;;;;10358349;28;20067;-59
2022/05/10 09:41:31;;;;;;;8.20;4.65;;;;;;;;;;10358324;28;20048;-58
2022/05/10 09:46:34;;;;;;;5.72;5.00;;;;;;;;;;10357479;28;20080;-58
2022/05/10 09:51:35;;;;;;;7.07;5.03;;;;;;;;;;10358068;28;20048;-58
2022/05/10 09:56:37;;;;;;;6.40;4.57;;;;;;;;;;10351140;28;20505;-59
2022/05/10 10:01:40;;;;;;;7.65;4.55;;;;;;;;;;10351051;28;20080;-59
2022/05/10 10:06:40;;;;;;;10.77;4.45;;;;;;;;;;10356875;28;20457;-59
2022/05/10 10:11:41;;;;;;;5.10;4.00;;;;;;;;;;10349468;28;20083;-58
2022/05/10 10:16:48;;;;;;;7.90;4.95;;;;;;;;;;10357252;28;20083;-59
2022/05/10 10:21:48;;;;;;;11.27;4.57;;;;;;;;;;10355051;28;20539;-58
2022/05/10 10:26:49;;;;;;;8.75;4.30;;;;;;;;;;10352638;28;20047;-58
2022/05/10 10:31:51;;;;;;;10.68;4.60;;;;;;;;;;10355930;28;20049;-58
2022/05/10 10:36:56;;;;;;;7.45;4.53;;;;;;;;;;10347545;28;20553;-58
2022/05/10 10:42:00;;;;;;;8.10;4.65;;;;;;;;;;10356047;28;20527;-58
2022/05/10 10:47:06;;;;;;;10.27;4.38;;;;;;;;;;10355960;28;20055;-58
2022/05/10 10:52:04;;;;;;;5.65;3.22;;;;;;;;;;10355360;28;20137;-58
2022/05/10 10:57:09;;;;;;;5.57;4.70;;;;;;;;;;10355213;28;20501;-58
2022/05/10 11:02:19;;;;;;;4.97;2.83;;;;;;;;;;10355416;28;20059;-59
2022/05/10 11:07:22;;;;;;;6.30;3.72;;;;;;;;;;10355407;28;20047;-57
2022/05/10 11:12:30;;;;;;;5.32;3.67;;;;;;;;;;10355105;28;20076;-57
2022/05/10 11:17:35;;;;;;;7.88;4.05;;;;;;;;;;10349427;28;20075;-57
2022/05/10 11:22:37;;;;;;;4.47;3.10;;;;;;;;;;10362201;28;20066;-57
2022/05/10 11:27:43;;;;;;;7.30;4.00;;;;;;;;;;10363291;28;20047;-58
2022/05/10 11:32:59;;;;;;;8.10;4.15;;;;;;;;;;10362964;28;20165;-58
2022/05/10 11:38:00;;;;;;;8.93;3.80;;;;;;;;;;10362061;28;20076;-59
2022/05/10 11:43:13;;;;;;;7.30;3.92;;;;;;;;;;10363179;28;20071;-58
2022/05/10 11:48:31;;;;;;;10.98;3.28;;;;;;;;;;10346375;28;20040;-58
2022/05/10 11:53:43;;;;;;;5.45;4.13;;;;;;;;;;10350269;28;20079;-58
2022/05/10 11:58:41;;;;;;;6.22;4.65;;;;;;;;;;10360227;28;20047;-58
2022/05/10 12:03:54;;;;;;;7.38;3.05;;;;;;;;;;10362487;28;20485;-59
2022/05/10 12:08:53;;;;;;;4.82;3.90;;;;;;;;;;10362166;28;20477;-58
2022/05/10 12:24:33;;;;;;;4.28;3.10;;;;;;;;;;10361849;28;20072;-58
2022/05/10 12:29:49;;;;;;;10.23;3.30;;;;;;;;;;10361754;28;20083;-58
2022/05/10 12:34:52;;;;;;;7.28;3.38;;;;;;;;;;10359955;28;20079;-58
2022/05/10 12:39:53;;;;;;;6.60;3.37;;;;;;;;;;10361266;28;20140;-59
2022/05/10 12:45:02;;;;;;;6.68;3.25;;;;;;;;;;10360779;28;20098;-58
2022/05/10 12:50:07;;;;;;;5.47;3.42;;;;;;;;;;10360121;28;20047;-58
2022/05/10 12:55:06;;;;;;;5.00;3.08;;;;;;;;;;10360867;28;20508;-58
2022/05/10 13:00:08;;;;;;;10.43;5.07;;;;;;;;;;10360035;28;20123;-58
2022/05/10 13:05:09;;;;;;;6.53;3.30;;;;;;;;;;10360529;28;20124;-58
2022/05/10 13:10:08;;;;;;;7.60;4.75;;;;;;;;;;10359038;28;20076;-58
2022/05/10 13:15:10;;;;;;;9.65;4.05;;;;;;;;;;10353864;28;20114;-58
2022/05/10 13:20:12;;;;;;;10.35;5.25;;;;;;;;;;10359608;28;20052;-59
2022/05/10 13:25:11;;;;;;;8.30;4.78;;;;;;;;;;10354848;28;20071;-59
2022/05/10 13:30:14;;;;;;;6.95;4.13;;;;;;;;;;10354906;28;20048;-59
2022/05/10 13:35:15;;;;;;;7.63;3.77;;;;;;;;;;10353372;28;20630;-57
2022/05/10 13:40:21;;;;;;;7.95;4.40;;;;;;;;;;10355891;28;20082;-57
2022/05/10 13:45:23;;;;;;;8.57;3.55;;;;;;;;;;10356695;28;20047;-58
2022/05/10 13:50:23;;;;;;;6.35;4.78;;;;;;;;;;10357468;28;20075;-59
2022/05/10 13:55:22;;;;;;;15.50;4.78;;;;;;;;;;10357253;28;20517;-58
2022/05/10 14:00:23;;;;;;;7.30;3.22;;;;;;;;;;10357084;28;20059;-58
2022/05/10 14:05:24;;;;;;;4.55;3.03;;;;;;;;;;10356689;28;20533;-58
2022/05/10 14:10:22;;;;;;;6.43;4.30;;;;;;;;;;10357087;28;20543;-57
2022/05/10 14:15:21;;;;;;;6.60;3.60;;;;;;;;;;10356619;28;20075;-58
2022/05/10 14:20:24;;;;;;;14.25;6.75;;;;;;;;;;10356488;28;20055;-58
2022/05/10 14:25:24;;;;;;;11.57;5.63;;;;;;;;;;10355734;28;20536;-58
2022/05/10 14:30:24;;;;;;;8.18;6.43;;;;;;;;;;10356639;28;20067;-57
2022/05/10 14:35:26;;;;;;;7.57;5.57;;;;;;;;;;10355798;28;20080;-58
2022/05/10 14:40:32;;;;;;;6.05;4.85;;;;;;;;;;10355636;28;20167;-58
2022/05/10 14:45:32;;;;;;;6.38;4.18;;;;;;;;;;10355806;28;20448;-58
2022/05/10 14:50:38;;;;;;;4.75;3.83;;;;;;;;;;10355675;28;20079;-58
2022/05/10 14:55:38;;;;;;;4.35;2.85;;;;;;;;;;10355129;28;20092;-58
2022/05/10 15:00:40;;;;;;;19.70;4.25;;;;;;;;;;10355172;28;20544;-58
2022/05/10 15:05:40;;;;;;;7.33;3.13;;;;;;;;;;10355127;28;20086;-57
2022/05/10 15:10:42;;;;;;;6.22;3.17;;;;;;;;;;10355050;28;20071;-58
2022/05/10 15:15:48;;;;;;;5.95;3.13;;;;;;;;;;10351107;28;20493;-58
2022/05/10 15:20:46;;;;;;;8.55;3.92;;;;;;;;;;10351577;28;20083;-58
2022/05/10 15:25:46;;;;;;;5.65;3.92;;;;;;;;;;10351684;28;20071;-58
2022/05/10 15:30:44;;;;;;;11.25;7.55;;;;;;;;;;10351112;28;20048;-58
2022/05/10 15:35:42;;;;;;;4.78;3.67;;;;;;;;;;10354290;28;20072;-58
2022/05/10 15:40:43;;;;;;;5.95;4.18;;;;;;;;;;10354447;28;20055;-58
2022/05/10 15:45:43;;;;;;;10.73;4.45;;;;;;;;;;10354562;28;20461;-58
2022/05/10 15:50:41;;;;;;;13.95;5.47;;;;;;;;;;10353727;28;20181;-58
2022/05/10 15:55:39;;;;;;;8.23;5.30;;;;;;;;;;10354033;28;20076;-58
2022/05/10 16:00:40;;;;;;;4.00;3.58;;;;;;;;;;10353849;28;20465;-57
2022/05/10 16:05:41;;;;;;;8.93;3.85;;;;;;;;;;10354335;28;20079;-58
2022/05/10 16:10:39;;;;;;;9.23;4.05;;;;;;;;;;10360999;28;20079;-59
2022/05/10 16:15:38;;;;;;;8.82;3.65;;;;;;;;;;10361202;28;20506;-57
2022/05/10 16:20:37;;;;;;;10.60;9.05;;;;;;;;;;10361372;28;20051;-58
2022/05/10 16:25:37;;;;;;;4.63;3.22;;;;;;;;;;10360973;28;20083;-56
2022/05/10 16:30:35;;;;;;;10.18;4.45;;;;;;;;;;10360892;28;20062;-58
2022/05/10 16:35:34;;;;;;;12.00;6.68;;;;;;;;;;10359785;28;20107;-57
2022/05/10 16:40:32;;;;;;;10.48;7.20;;;;;;;;;;10359906;28;20099;-57
2022/05/10 16:45:32;;;;;;;9.50;3.78;;;;;;;;;;10360039;28;20052;-57
2022/05/10 16:50:31;;;;;;;9.50;5.95;;;;;;;;;;10359868;28;20043;-58
2022/05/10 16:55:32;;;;;;;8.32;4.15;;;;;;;;;;10351504;28;20080;-58
2022/05/10 17:00:31;;;;;;;9.98;4.40;;;;;;;;;;10356029;28;20422;-57
2022/05/10 17:05:30;;;;;;;9.48;4.57;;;;;;;;;;10359809;28;20052;-58
2022/05/10 17:10:34;;;;;;;7.50;3.88;;;;;;;;;;10359792;28;20063;-56
2022/05/10 17:15:34;;;;;;;7.75;4.15;;;;;;;;;;10358863;28;20048;-58
2022/05/10 17:20:32;;;;;;;7.95;4.07;;;;;;;;;;10358514;28;20032;-58
2022/05/10 17:25:31;;;;;;;7.28;4.60;;;;;;;;;;10354103;28;20048;-57
2022/05/10 17:30:30;;;;;;;9.80;4.20;;;;;;;;;;10357706;28;20040;-57
2022/05/10 17:35:29;;;;;;;6.20;3.80;;;;;;;;;;10357816;28;20536;-58
2022/05/10 17:40:29;;;;;;;10.70;3.92;;;;;;;;;;10357964;28;20051;-57
2022/05/10 17:45:27;;;;;;;6.18;4.60;;;;;;;;;;10357651;28;20071;-57
2022/05/10 17:50:26;;;;;;;8.52;7.30;;;;;;;;;;10356937;28;20079;-56
2022/05/10 17:55:26;;;;;;;6.07;4.28;;;;;;;;;;10352338;28;20071;-57
2022/05/10 18:00:25;;;;;;;9.73;5.68;;;;;;;;;;10354030;28;20067;-57
2022/05/10 18:05:23;;;;;;;5.03;3.45;;;;;;;;;;10356157;28;20112;-57
2022/05/10 18:10:22;;;;;;;5.78;3.67;;;;;;;;;;10355917;28;20547;-57
2022/05/10 18:15:21;;;;;;;5.65;3.53;;;;;;;;;;10356989;28;20091;-58
2022/05/10 18:20:20;;;;;;;4.45;3.45;;;;;;;;;;10356415;28;20071;-57
2022/05/10 18:25:18;;;;;;;10.00;3.20;;;;;;;;;;10356192;28;20083;-57
2022/05/10 18:30:17;;;;;;;6.28;3.53;;;;;;;;;;10351119;28;20047;-57
2022/05/10 18:35:18;;;;;;;3.20;2.45;;;;;;;;;;10355704;28;20040;-57
2022/05/10 18:40:17;;;;;;;5.55;3.38;;;;;;;;;;10355877;28;20500;-57
2022/05/10 18:45:16;;;;;;;14.70;4.28;;;;;;;;;;10344957;28;20091;-57
2022/05/10 18:50:16;;;;;;;6.32;3.92;;;;;;;;;;10355555;28;20044;-57
2022/05/10 18:55:16;;;;;;;3.90;3.30;;;;;;;;;;10354779;28;20070;-57
2022/05/10 19:00:16;;;;;;;4.95;3.92;;;;;;;;;;10355042;28;20517;-55
2022/05/10 19:05:16;;;;;;;4.68;3.03;;;;;;;;;;10354091;28;20068;-56
2022/05/10 19:10:14;;;;;;;4.38;3.80;;;;;;;;;;10353438;28;20071;-56
2022/05/10 19:15:13;;;;;;;5.40;2.60;;;;;;;;;;10351210;28;20072;-56
2022/05/10 19:20:12;;;;;;;3.10;2.80;;;;;;;;;;10354983;28;20521;-56
2022/05/10 19:25:14;;;;;;;3.35;2.60;;;;;;;;;;10353903;28;20472;-57
2022/05/10 19:30:14;;;;;;;6.75;3.58;;;;;;;;;;10350303;28;20480;-57
2022/05/10 19:35:13;;;;;;;4.45;3.05;;;;;;;;;;10347420;28;20079;-56
2022/05/10 19:40:12;;;;;;;5.05;2.80;;;;;;;;;;10353322;28;20060;-57
2022/05/10 19:45:12;;;;;;;4.60;3.50;;;;;;;;;;10357129;28;20465;-55
2022/05/10 19:50:11;;;;;;;5.90;3.47;;;;;;;;;;10358135;28;20064;-56
2022/05/10 19:55:12;;;;;;;10.77;3.40;;;;;;;;;;10359476;28;20115;-57
2022/05/10 20:00:14;;;;;;;4.90;2.33;;;;;;;;;;10352535;28;20075;-56
2022/05/10 20:05:23;;;;;;;3.67;2.75;;;;;;;;;;10355909;28;20552;-56
2022/05/10 20:10:22;;;;;;;6.85;3.40;;;;;;;;;;10361885;28;20483;-57
2022/05/10 20:15:37;;;;;;;4.37;3.97;;;;;;;;;;10360172;28;20488;-57
2022/05/10 20:20:36;;;;;;;9.13;4.00;;;;;;;;;;10359352;28;20079;-58
2022/05/10 20:25:36;;;;;;;7.68;3.80;;;;;;;;;;10359844;28;20091;-57
2022/05/10 20:30:34;;;;;;;7.68;3.83;;;;;;;;;;10359577;28;20040;-56
2022/05/10 20:35:34;;;;;;;4.20;3.58;;;;;;;;;;10359506;28;20067;-53
2022/05/10 20:40:33;;;;;;;8.77;4.40;;;;;;;;;;10358792;28;20288;-57
2022/05/10 20:45:33;;;;;;;5.25;3.42;;;;;;;;;;10358584;28;20567;-57
2022/05/10 20:50:31;;;;;;;5.10;3.25;;;;;;;;;;10358645;28;20449;-56
2022/05/10 20:55:33;;;;;;;9.45;3.05;;;;;;;;;;10357876;28;20068;-57
2022/05/10 21:00:32;;;;;;;4.35;3.15;;;;;;;;;;10357846;28;20072;-57
2022/05/10 21:05:30;;;;;;;4.53;2.83;;;;;;;;;;10357430;28;20064;-57
2022/05/10 21:10:29;;;;;;;3.50;2.83;;;;;;;;;;10357771;28;20079;-57
2022/05/10 21:15:29;;;;;;;4.75;4.30;;;;;;;;;;10357127;28;20517;-56
2022/05/10 21:20:45;;;;;;;8.55;6.18;;;;;;;;;;10362189;28;20544;-57
2022/05/10 21:26:02;;;;;;;7.10;5.88;;;;;;;;;;10364641;28;20478;-57
2022/05/10 21:31:18;;;;;;;3.25;2.60;;;;;;;;;;10358825;28;20196;-58
2022/05/10 21:36:16;;;;;;;6.70;3.83;;;;;;;;;;10355735;28;20525;-56
2022/05/10 21:41:15;;;;;;;5.95;2.95;;;;;;;;;;10355307;28;20083;-57
2022/05/10 21:46:14;;;;;;;25.85;17.83;;;;;;;;;;10354083;28;20079;-57
2022/05/10 21:51:12;;;;;;;63.00;42.03;;;;;;;;;;10355434;28;20052;-57
2022/05/10 21:56:11;;;;;;;9.43;5.35;;;;;;;;;;10354411;28;20100;-57
2022/05/10 22:01:09;;;;;;;9.75;4.38;;;;;;;;;;10353317;28;20079;-57
2022/05/10 22:06:08;;;;;;;25.75;18.30;;;;;;;;;;10350710;28;20596;-57
2022/05/10 22:11:07;;;;;;;8.18;4.43;;;;;;;;;;10352637;28;20078;-57
2022/05/10 22:16:06;;;;;;;11.18;7.20;;;;;;;;;;10352788;28;20075;-58
2022/05/10 22:21:05;;;;;;;7.75;5.13;;;;;;;;;;10352434;28;20444;-57
2022/05/10 22:26:05;;;;;;;14.60;9.73;;;;;;;;;;10355201;28;20535;-57
2022/05/10 22:31:03;;;;;;;10.10;5.00;;;;;;;;;;10352671;28;20531;-57
2022/05/10 22:36:01;;;;;;;8.85;4.60;;;;;;;;;;10353289;28;20068;-57
2022/05/10 22:40:59;;;;;;;20.92;14.80;;;;;;;;;;10355776;28;20090;-57
2022/05/10 22:46:08;;;;;;;7.80;5.00;;;;;;;;;;10356136;28;20081;-56
2022/05/10 22:51:06;;;;;;;8.13;4.63;;;;;;;;;;10355660;28;20078;-56
2022/05/10 22:56:06;;;;;;;7.30;4.82;;;;;;;;;;10355988;28;20079;-56
2022/05/10 23:01:06;;;;;;;10.15;4.25;;;;;;;;;;10355320;28;20079;-57
2022/05/10 23:06:06;;;;;;;9.30;5.75;;;;;;;;;;10356317;28;20445;-56
2022/05/10 23:11:04;;;;;;;8.18;4.80;;;;;;;;;;10355941;28;20083;-58
2022/05/10 23:16:03;;;;;;;7.93;5.25;;;;;;;;;;10361441;28;20071;-56
2022/05/10 23:21:02;;;;;;;5.13;4.28;;;;;;;;;;10369507;28;20083;-54
2022/05/10 23:26:01;;;;;;;8.65;4.60;;;;;;;;;;10370006;28;20064;-56
2022/05/10 23:30:59;;;;;;;7.75;4.95;;;;;;;;;;10368998;28;20079;-58
2022/05/10 23:35:58;;;;;;;7.55;4.88;;;;;;;;;;10368376;28;20042;-57
2022/05/10 23:40:56;;;;;;;5.85;4.60;;;;;;;;;;10368260;28;20068;-57
2022/05/10 23:45:56;;;;;;;11.57;4.25;;;;;;;;;;10368383;28;20067;-55
2022/05/10 23:50:54;;;;;;;7.32;4.45;;;;;;;;;;10367987;28;20036;-57
2022/05/10 23:55:52;;;;;;;5.50;4.30;;;;;;;;;;10368076;28;20501;-55
